createdAt,value
2023-05-02T00:00:05.019Z,9.20
2023-05-02T00:02:32.636Z,9.21
2023-05-02T00:05:00.396Z,9.19
2023-05-02T00:07:29.238Z,9.19
2023-05-02T00:09:56.804Z,9.12
2023-05-02T00:12:24.251Z,9.13
2023-05-02T00:14:51.798Z,9.11
2023-05-02T00:17:19.919Z,9.14
2023-05-02T00:19:47.787Z,9.12
2023-05-02T00:22:15.286Z,9.10
2023-05-02T00:24:44.114Z,9.07
2023-05-02T00:27:11.538Z,9.06
2023-05-02T00:29:39.032Z,9.01
2023-05-02T00:32:07.039Z,9.04
2023-05-02T00:34:34.697Z,8.96
2023-05-02T00:37:02.142Z,9.00
2023-05-02T00:39:29.721Z,8.99
2023-05-02T00:42:01.846Z,8.85
2023-05-02T00:44:29.725Z,8.76
2023-05-02T00:46:57.804Z,8.84
2023-05-02T00:49:25.673Z,8.80
2023-05-02T00:51:54.377Z,8.80
2023-05-02T00:54:21.996Z,8.86
2023-05-02T00:56:49.465Z,8.91
2023-05-02T00:59:19.134Z,8.85
2023-05-02T01:02:01.536Z,8.84
2023-05-02T01:04:38.684Z,8.83
2023-05-02T01:07:27.581Z,8.82
2023-05-02T01:10:09.356Z,8.82
2023-05-02T01:12:42.834Z,8.79
2023-05-02T01:15:17.041Z,8.77
2023-05-02T01:17:46.668Z,8.75
2023-05-02T01:20:17.331Z,8.72
2023-05-02T01:22:45.628Z,8.72
2023-05-02T01:25:23.561Z,8.68
2023-05-02T01:27:58.791Z,8.55
2023-05-02T01:30:30.779Z,8.61
2023-05-02T01:33:00.582Z,8.66
2023-05-02T01:35:29.015Z,8.65
2023-05-02T01:37:58.988Z,8.55
2023-05-02T01:40:27.089Z,8.60
2023-05-02T01:42:56.058Z,8.62
2023-05-02T01:45:24.885Z,8.58
2023-05-02T01:47:55.083Z,8.57
2023-05-02T01:50:26.794Z,8.54
2023-05-02T01:52:56.065Z,8.52
2023-05-02T01:55:26.707Z,8.51
2023-05-02T01:57:57.653Z,8.39
2023-05-02T02:00:26.551Z,8.04
2023-05-02T02:02:57.982Z,8.34
2023-05-02T02:05:26.475Z,8.40
2023-05-02T02:07:53.967Z,8.36
2023-05-02T02:10:22.307Z,8.46
2023-05-02T02:12:54.044Z,8.43
2023-05-02T02:15:28.222Z,8.44
2023-05-02T02:18:01.196Z,8.35
2023-05-02T02:20:30.193Z,8.39
2023-05-02T02:22:59.092Z,8.26
2023-05-02T02:25:27.915Z,8.14
2023-05-02T02:27:55.612Z,8.13
2023-05-02T02:30:23.181Z,7.45
2023-05-02T02:32:50.969Z,7.42
2023-05-02T02:35:20.377Z,7.74
2023-05-02T02:37:52.784Z,7.87
2023-05-02T02:40:26.001Z,8.03
2023-05-02T02:43:00.966Z,8.03
2023-05-02T02:45:36.525Z,7.87
2023-05-02T02:48:12.037Z,7.63
2023-05-02T02:50:53.876Z,8.03
2023-05-02T02:53:27.137Z,8.00
2023-05-02T02:56:00.015Z,8.09
2023-05-02T02:58:37.885Z,8.16
2023-05-02T03:01:08.974Z,8.15
2023-05-02T03:03:37.202Z,8.01
2023-05-02T03:06:06.561Z,8.08
2023-05-02T03:08:40.091Z,7.00
2023-05-02T03:11:08.055Z,7.87
2023-05-02T03:13:36.117Z,7.98
2023-05-02T03:16:31.800Z,7.90
2023-05-02T03:18:59.576Z,7.97
2023-05-02T03:21:31.450Z,8.08
2023-05-02T03:24:00.020Z,7.91
2023-05-02T03:26:27.717Z,8.00
2023-05-02T03:28:55.402Z,8.02
2023-05-02T03:31:25.486Z,8.00
2023-05-02T03:33:54.385Z,7.99
2023-05-02T03:36:22.126Z,8.00
2023-05-02T03:38:51.124Z,7.97
2023-05-02T03:41:20.884Z,7.96
2023-05-02T03:43:48.350Z,7.93
2023-05-02T03:46:15.853Z,7.88
2023-05-02T03:48:45.496Z,7.96
2023-05-02T03:51:13.358Z,7.95
2023-05-02T03:53:40.818Z,7.92
2023-05-02T03:56:09.828Z,7.87
2023-05-02T03:58:37.466Z,7.92
2023-05-02T04:01:04.994Z,7.93
2023-05-02T04:03:32.539Z,7.94
2023-05-02T04:06:00.029Z,8.01
2023-05-02T04:08:27.524Z,7.96
2023-05-02T04:10:54.950Z,8.01
2023-05-02T04:13:23.719Z,7.97
2023-05-02T04:15:51.295Z,7.82
2023-05-02T04:18:18.744Z,8.00
2023-05-02T04:20:46.212Z,8.00
2023-05-02T04:23:14.263Z,7.92
2023-05-02T04:25:41.714Z,7.97
2023-05-02T04:28:09.278Z,8.00
2023-05-02T04:30:38.424Z,7.92
2023-05-02T04:33:05.969Z,8.07
2023-05-02T04:35:33.412Z,8.11
2023-05-02T04:38:00.922Z,7.44
2023-05-02T04:40:28.434Z,7.70
2023-05-02T04:42:55.890Z,7.79
2023-05-02T04:45:23.395Z,7.58
2023-05-02T04:47:52.350Z,7.75
2023-05-02T04:50:19.841Z,8.05
2023-05-02T04:52:47.309Z,8.07
2023-05-02T04:55:14.853Z,8.13
2023-05-02T04:57:42.304Z,7.93
2023-05-02T05:00:10.647Z,8.17
2023-05-02T05:02:38.848Z,8.18
2023-05-02T05:05:08.723Z,8.21
2023-05-02T05:07:36.247Z,8.22
2023-05-02T05:10:03.947Z,8.29
2023-05-02T05:12:31.502Z,7.95
2023-05-02T05:14:58.996Z,8.21
2023-05-02T05:17:26.652Z,7.45
2023-05-02T05:19:54.180Z,7.44
2023-05-02T05:22:22.960Z,7.52
2023-05-02T05:24:54.494Z,8.04
2023-05-02T05:27:23.644Z,8.23
2023-05-02T05:29:51.163Z,8.22
2023-05-02T05:32:18.655Z,8.35
2023-05-02T05:34:46.095Z,8.40
2023-05-02T05:37:13.659Z,8.38
2023-05-02T05:39:42.420Z,8.36
2023-05-02T05:42:10.038Z,7.83
2023-05-02T05:44:37.499Z,8.28
2023-05-02T05:47:05.220Z,8.14
2023-05-02T05:49:32.716Z,7.81
2023-05-02T05:52:00.205Z,8.29
2023-05-02T05:54:27.702Z,8.48
2023-05-02T05:56:56.547Z,8.35
2023-05-02T05:59:24.046Z,8.54
2023-05-02T06:01:51.714Z,8.45
2023-05-02T06:04:19.217Z,8.22
2023-05-02T06:06:46.792Z,8.34
2023-05-02T06:09:14.340Z,8.29
2023-05-02T06:11:41.763Z,8.15
2023-05-02T06:14:10.576Z,8.36
2023-05-02T06:16:38.413Z,8.39
2023-05-02T06:19:05.941Z,8.47
2023-05-02T06:21:33.390Z,8.63
2023-05-02T06:24:00.922Z,8.67
2023-05-02T06:26:28.470Z,8.73
2023-05-02T06:28:56.049Z,8.78
2023-05-02T06:31:25.374Z,8.83
2023-05-02T06:33:52.881Z,8.83
2023-05-02T06:36:20.338Z,8.82
2023-05-02T06:38:48.768Z,8.85
2023-05-02T06:41:18.233Z,8.90
2023-05-02T06:43:46.003Z,8.98
2023-05-02T06:46:13.562Z,8.92
2023-05-02T06:48:42.887Z,8.93
2023-05-02T06:51:10.947Z,8.98
2023-05-02T06:53:38.394Z,9.01
2023-05-02T06:56:06.614Z,9.09
2023-05-02T06:58:34.097Z,9.13
2023-05-02T07:01:01.586Z,9.19
2023-05-02T07:03:29.294Z,9.18
2023-05-02T07:05:58.247Z,9.28
2023-05-02T07:08:25.816Z,9.32
2023-05-02T07:10:53.283Z,9.33
2023-05-02T07:13:20.795Z,9.43
2023-05-02T07:15:48.308Z,9.40
2023-05-02T07:18:15.810Z,9.40
2023-05-02T07:20:43.348Z,9.46
2023-05-02T07:23:12.208Z,9.47
2023-05-02T07:25:40.019Z,9.37
2023-05-02T07:28:07.645Z,9.34
2023-05-02T07:30:35.231Z,9.28
2023-05-02T07:33:02.781Z,9.26
2023-05-02T07:35:30.411Z,9.28
2023-05-02T07:37:58.123Z,9.24
2023-05-02T07:40:28.336Z,9.26
2023-05-02T07:42:55.798Z,9.26
2023-05-02T07:45:23.306Z,9.31
2023-05-02T07:47:50.958Z,9.39
2023-05-02T07:50:18.507Z,9.35
2023-05-02T07:52:46.027Z,9.43
2023-05-02T07:55:13.522Z,9.49
2023-05-02T07:57:42.551Z,9.43
2023-05-02T08:00:11.586Z,9.44
2023-05-02T08:02:39.189Z,9.46
2023-05-02T08:05:07.870Z,9.50
2023-05-02T08:07:37.179Z,9.67
2023-05-02T08:10:05.357Z,9.74
2023-05-02T08:12:32.848Z,9.96
2023-05-02T08:15:06.128Z,10.03
2023-05-02T08:17:34.178Z,10.00
2023-05-02T08:20:02.374Z,10.18
2023-05-02T08:22:30.184Z,10.23
2023-05-02T08:24:57.670Z,10.46
2023-05-02T08:27:25.130Z,10.41
2023-05-02T08:29:52.718Z,10.61
2023-05-02T08:32:22.413Z,10.73
2023-05-02T08:34:49.881Z,10.79
2023-05-02T08:37:18.320Z,10.77
2023-05-02T08:39:45.750Z,10.84
2023-05-02T08:42:13.230Z,10.86
2023-05-02T08:44:40.853Z,11.27
2023-05-02T08:47:12.014Z,11.53
2023-05-02T08:49:42.063Z,11.64
2023-05-02T08:52:11.794Z,11.70
2023-05-02T08:54:39.787Z,11.58
2023-05-02T08:57:07.667Z,11.71
2023-05-02T08:59:35.303Z,11.87
2023-05-02T09:02:17.664Z,11.86
2023-05-02T09:04:52.299Z,12.29
2023-05-02T09:07:19.656Z,12.05
2023-05-02T09:09:47.173Z,12.02
2023-05-02T09:12:16.384Z,12.16
2023-05-02T09:14:44.694Z,12.47
2023-05-02T09:17:12.219Z,12.35
2023-05-02T09:19:39.701Z,12.37
2023-05-02T09:22:08.487Z,12.61
2023-05-02T09:24:36.070Z,12.39
2023-05-02T09:27:04.946Z,13.04
2023-05-02T09:29:37.790Z,13.32
2023-05-02T09:32:06.364Z,13.52
2023-05-02T09:34:37.140Z,13.27
2023-05-02T09:37:05.786Z,13.28
2023-05-02T09:39:34.690Z,12.54
2023-05-02T09:42:03.472Z,12.47
2023-05-02T09:44:39.132Z,12.42
2023-05-02T09:47:06.829Z,12.54
2023-05-02T09:49:42.478Z,13.00
2023-05-02T09:52:15.107Z,13.50
2023-05-02T09:54:46.198Z,13.79
2023-05-02T09:57:14.028Z,13.43
2023-05-02T09:59:41.844Z,13.33
2023-05-02T10:02:11.456Z,13.65
2023-05-02T10:04:40.744Z,14.04
2023-05-02T10:07:10.701Z,14.73
2023-05-02T10:09:44.069Z,14.96
2023-05-02T10:12:16.555Z,14.03
2023-05-02T10:14:49.591Z,13.76
2023-05-02T10:17:23.005Z,13.55
2023-05-02T10:19:56.959Z,13.37
2023-05-02T10:22:24.879Z,13.68
2023-05-02T10:24:54.565Z,13.53
2023-05-02T10:27:23.654Z,13.48
2023-05-02T10:29:52.487Z,13.70
2023-05-02T10:32:21.440Z,13.88
2023-05-02T10:34:51.441Z,13.49
2023-05-02T10:37:20.348Z,14.07
2023-05-02T10:39:47.857Z,13.63
2023-05-02T10:42:15.665Z,13.48
2023-05-02T10:44:45.069Z,13.82
2023-05-02T10:47:23.058Z,13.63
2023-05-02T10:49:52.412Z,13.58
2023-05-02T10:52:31.549Z,13.76
2023-05-02T10:55:19.218Z,13.47
2023-05-02T10:58:24.177Z,14.45
2023-05-02T11:00:53.140Z,15.16
2023-05-02T11:03:55.220Z,15.71
2023-05-02T11:06:22.931Z,15.39
2023-05-02T11:08:50.784Z,15.01
2023-05-02T11:11:41.331Z,14.64
2023-05-02T11:14:09.618Z,14.54
2023-05-02T11:17:10.846Z,15.03
2023-05-02T11:20:25.597Z,14.77
2023-05-02T11:22:54.000Z,14.46
2023-05-02T11:25:37.404Z,14.07
2023-05-02T11:28:07.241Z,14.04
2023-05-02T11:30:43.730Z,13.97
2023-05-02T11:33:21.701Z,13.88
2023-05-02T11:35:49.859Z,13.69
2023-05-02T11:38:20.557Z,13.68
2023-05-02T11:40:55.951Z,13.88
2023-05-02T11:43:25.128Z,14.04
2023-05-02T11:45:53.251Z,14.11
2023-05-02T11:48:23.962Z,14.41
2023-05-02T11:50:53.138Z,13.96
2023-05-02T11:53:23.431Z,13.86
2023-05-02T11:55:52.060Z,13.75
2023-05-02T11:58:21.263Z,13.72
2023-05-02T12:00:49.826Z,13.70
2023-05-02T12:03:28.085Z,13.49
2023-05-02T12:05:56.026Z,13.45
2023-05-02T12:08:26.289Z,13.16
2023-05-02T12:10:55.337Z,13.04
2023-05-02T12:13:24.970Z,12.93
2023-05-02T12:15:53.719Z,12.93
2023-05-02T12:18:24.324Z,12.86
2023-05-02T12:20:54.513Z,12.61
2023-05-02T12:23:24.430Z,12.63
2023-05-02T12:25:51.988Z,12.58
2023-05-02T12:28:20.657Z,12.47
2023-05-02T12:30:49.647Z,12.43
2023-05-02T12:33:17.837Z,12.41
2023-05-02T12:35:47.317Z,12.35
2023-05-02T12:38:18.639Z,12.19
2023-05-02T12:40:51.000Z,12.18
2023-05-02T12:43:19.238Z,11.92
2023-05-02T12:45:48.460Z,11.32
2023-05-02T12:48:24.378Z,11.12
2023-05-02T12:50:52.361Z,10.82
2023-05-02T12:53:38.664Z,10.15
2023-05-02T12:56:07.267Z,10.20
2023-05-02T12:58:42.451Z,10.42
2023-05-02T13:01:10.453Z,10.41
2023-05-02T13:03:38.697Z,10.31
2023-05-02T13:06:06.936Z,10.63
2023-05-02T13:08:36.615Z,10.34
2023-05-02T13:11:04.968Z,10.31
2023-05-02T13:13:32.565Z,11.25
2023-05-02T13:16:00.118Z,10.80
2023-05-02T13:18:28.377Z,11.13
2023-05-02T13:20:55.965Z,11.27
2023-05-02T13:23:23.496Z,11.87
2023-05-02T13:25:52.271Z,11.99
2023-05-02T13:28:19.700Z,12.07
2023-05-02T13:30:47.219Z,12.52
2023-05-02T13:33:14.746Z,12.24
2023-05-02T13:35:42.245Z,12.18
2023-05-02T13:38:09.730Z,12.48
2023-05-02T13:40:37.409Z,11.94
2023-05-02T13:43:06.380Z,12.50
2023-05-02T13:45:34.035Z,12.71
2023-05-02T13:48:01.497Z,12.66
2023-05-02T13:50:29.044Z,12.59
2023-05-02T13:52:56.484Z,12.89
2023-05-02T13:55:24.190Z,12.89
2023-05-02T13:57:51.764Z,12.98
2023-05-02T14:00:20.971Z,12.91
2023-05-02T14:02:49.089Z,12.87
2023-05-02T14:05:16.630Z,13.14
2023-05-02T14:07:44.108Z,13.18
2023-05-02T14:10:11.767Z,13.40
2023-05-02T14:12:39.208Z,13.36
2023-05-02T14:15:07.827Z,13.40
2023-05-02T14:17:36.647Z,13.37
2023-05-02T14:20:04.622Z,13.58
2023-05-02T14:22:32.314Z,13.48
2023-05-02T14:24:59.780Z,13.73
2023-05-02T14:27:27.608Z,13.97
2023-05-02T14:29:55.182Z,13.78
2023-05-02T14:32:22.801Z,13.96
2023-05-02T14:34:51.663Z,13.80
2023-05-02T14:37:19.153Z,13.88
2023-05-02T14:39:58.116Z,13.80
2023-05-02T14:42:25.812Z,14.12
2023-05-02T14:44:53.450Z,14.09
2023-05-02T14:47:20.881Z,14.11
2023-05-02T14:49:48.449Z,14.13
2023-05-02T14:52:17.222Z,14.28
2023-05-02T14:54:44.710Z,14.30
2023-05-02T14:57:12.196Z,14.45
2023-05-02T14:59:40.171Z,14.13
2023-05-02T15:02:08.289Z,14.34
2023-05-02T15:04:35.973Z,14.24
2023-05-02T15:07:03.695Z,14.44
2023-05-02T15:09:32.542Z,14.32
2023-05-02T15:11:59.970Z,14.42
2023-05-02T15:14:27.476Z,14.31
2023-05-02T15:16:55.121Z,14.30
2023-05-02T15:19:23.917Z,14.40
2023-05-02T15:21:53.015Z,14.40
2023-05-02T15:24:20.586Z,14.56
2023-05-02T15:26:49.380Z,14.49
2023-05-02T15:29:17.051Z,14.49
2023-05-02T15:31:44.734Z,14.56
2023-05-02T15:34:12.659Z,14.50
2023-05-02T15:36:40.598Z,14.60
2023-05-02T15:39:08.486Z,14.61
2023-05-02T15:41:36.054Z,14.89
2023-05-02T15:44:05.335Z,15.01
2023-05-02T15:46:32.782Z,14.68
2023-05-02T15:49:00.303Z,14.71
2023-05-02T15:51:27.894Z,14.76
2023-05-02T15:53:55.827Z,14.82
2023-05-02T15:56:23.314Z,14.45
2023-05-02T15:58:50.841Z,14.64
2023-05-02T16:01:20.950Z,14.96
2023-05-02T16:03:48.556Z,15.02
2023-05-02T16:06:17.442Z,14.73
2023-05-02T16:08:45.016Z,14.76
2023-05-02T16:11:12.459Z,14.79
2023-05-02T16:13:40.351Z,14.92
2023-05-02T16:16:08.506Z,14.82
2023-05-02T16:18:37.368Z,14.88
2023-05-02T16:21:05.370Z,14.72
2023-05-02T16:23:32.922Z,14.74
2023-05-02T16:26:01.521Z,14.81
2023-05-02T16:28:29.288Z,14.73
2023-05-02T16:30:57.013Z,14.63
2023-05-02T16:33:24.577Z,14.69
2023-05-02T16:36:02.661Z,14.71
2023-05-02T16:38:30.382Z,14.71
2023-05-02T16:40:58.305Z,14.69
2023-05-02T16:43:25.937Z,14.67
2023-05-02T16:46:00.750Z,14.54
2023-05-02T16:48:28.380Z,14.57
2023-05-02T16:50:55.890Z,14.62
2023-05-02T16:53:25.050Z,14.53
2023-05-02T16:55:52.523Z,14.54
2023-05-02T16:58:20.212Z,14.57
2023-05-02T17:00:47.670Z,14.29
2023-05-02T17:03:15.255Z,14.11
2023-05-02T17:05:42.815Z,14.02
2023-05-02T17:08:11.032Z,13.86
2023-05-02T17:10:39.907Z,13.83
2023-05-02T17:13:07.590Z,13.69
2023-05-02T17:15:38.358Z,13.67
2023-05-02T17:18:06.034Z,13.55
2023-05-02T17:20:33.732Z,13.47
2023-05-02T17:23:02.132Z,13.37
2023-05-02T17:25:29.666Z,13.18
2023-05-02T17:27:58.513Z,13.01
2023-05-02T17:30:26.079Z,12.97
2023-05-02T17:32:53.636Z,12.90
2023-05-02T17:35:21.254Z,12.83
2023-05-02T17:37:48.739Z,12.71
2023-05-02T17:40:16.803Z,12.57
2023-05-02T17:42:45.381Z,12.60
2023-05-02T17:45:14.915Z,12.43
2023-05-02T17:47:42.395Z,12.45
2023-05-02T17:50:10.560Z,12.41
2023-05-02T17:52:38.690Z,12.17
2023-05-02T17:55:08.298Z,12.32
2023-05-02T17:57:46.219Z,12.23
2023-05-02T18:00:16.535Z,12.02
2023-05-02T18:02:44.294Z,11.99
2023-05-02T18:05:12.326Z,12.13
2023-05-02T18:07:39.803Z,12.02
2023-05-02T18:10:08.363Z,12.06
2023-05-02T18:12:36.018Z,12.24
2023-05-02T18:15:05.108Z,12.48
2023-05-02T18:17:34.455Z,12.13
2023-05-02T18:20:04.223Z,12.10
2023-05-02T18:22:32.246Z,12.46
2023-05-02T18:24:59.822Z,12.50
2023-05-02T18:27:27.335Z,12.40
2023-05-02T18:29:55.324Z,12.48
2023-05-02T18:32:22.806Z,12.61
2023-05-02T18:34:51.691Z,12.20
2023-05-02T18:37:19.152Z,12.31
2023-05-02T18:39:46.597Z,12.47
2023-05-02T18:42:14.699Z,12.41
2023-05-02T18:44:42.144Z,12.44
2023-05-02T18:47:09.728Z,12.53
2023-05-02T18:49:37.186Z,12.65
2023-05-02T18:52:06.168Z,12.54
2023-05-02T18:54:33.927Z,12.62
2023-05-02T18:57:01.955Z,12.68
2023-05-02T18:59:29.656Z,12.68
2023-05-02T19:01:58.163Z,12.64
2023-05-02T19:04:26.014Z,12.64
2023-05-02T19:06:53.545Z,12.64
2023-05-02T19:09:22.419Z,12.59
2023-05-02T19:11:49.890Z,12.54
2023-05-02T19:14:17.386Z,11.83
2023-05-02T19:16:44.867Z,11.40
2023-05-02T19:19:12.336Z,11.86
2023-05-02T19:21:39.869Z,12.39
2023-05-02T19:24:07.631Z,12.28
2023-05-02T19:26:36.645Z,12.41
2023-05-02T19:29:04.107Z,12.42
2023-05-02T19:31:31.646Z,12.38
2023-05-02T19:34:00.062Z,12.38
2023-05-02T19:36:28.270Z,12.26
2023-05-02T19:38:57.923Z,12.36
2023-05-02T19:41:25.697Z,12.33
2023-05-02T19:43:55.549Z,11.85
2023-05-02T19:46:23.166Z,10.97
2023-05-02T19:48:50.675Z,10.69
2023-05-02T19:51:22.042Z,11.07
2023-05-02T19:53:49.562Z,10.75
2023-05-02T19:56:18.307Z,10.47
2023-05-02T19:58:45.794Z,10.58
2023-05-02T20:01:14.847Z,10.74
2023-05-02T20:03:42.626Z,10.29
2023-05-02T20:06:10.304Z,10.42
2023-05-02T20:08:37.859Z,10.71
2023-05-02T20:11:05.423Z,10.80
2023-05-02T20:13:32.927Z,11.11
2023-05-02T20:16:00.592Z,10.60
2023-05-02T20:18:29.463Z,10.87
2023-05-02T20:20:56.911Z,11.07
2023-05-02T20:23:24.377Z,10.31
2023-05-02T20:25:51.933Z,10.73
2023-05-02T20:28:19.411Z,10.90
2023-05-02T20:30:46.870Z,10.50
2023-05-02T20:33:16.716Z,10.45
2023-05-02T20:35:46.573Z,11.16
2023-05-02T20:38:14.718Z,11.31
2023-05-02T20:40:42.489Z,11.33
2023-05-02T20:43:09.958Z,10.56
2023-05-02T20:45:38.723Z,11.39
2023-05-02T20:48:06.848Z,11.29
2023-05-02T20:50:34.361Z,11.24
2023-05-02T20:53:04.425Z,11.59
2023-05-02T20:55:31.972Z,11.58
2023-05-02T20:57:59.505Z,11.52
2023-05-02T21:00:27.560Z,11.50
2023-05-02T21:02:55.041Z,11.51
2023-05-02T21:05:22.553Z,11.52
2023-05-02T21:07:49.992Z,11.42
2023-05-02T21:10:18.970Z,10.68
2023-05-02T21:12:46.429Z,11.23
2023-05-02T21:15:14.875Z,11.43
2023-05-02T21:17:42.474Z,11.32
2023-05-02T21:20:10.964Z,10.98
2023-05-02T21:22:38.279Z,9.90
2023-05-02T21:25:06.653Z,9.46
2023-05-02T21:27:35.543Z,9.22
2023-05-02T21:30:03.325Z,10.33
2023-05-02T21:32:31.046Z,9.73
2023-05-02T21:34:58.545Z,9.67
2023-05-02T21:37:25.985Z,9.44
2023-05-02T21:39:53.475Z,9.08
2023-05-02T21:42:20.982Z,9.40
2023-05-02T21:44:50.413Z,9.23
2023-05-02T21:47:17.861Z,9.46
2023-05-02T21:49:45.440Z,9.28
2023-05-02T21:52:12.903Z,8.91
2023-05-02T21:54:40.535Z,9.57
2023-05-02T21:57:07.980Z,8.81
2023-05-02T21:59:35.771Z,8.94
2023-05-02T22:02:04.666Z,9.13
2023-05-02T22:04:32.100Z,8.62
2023-05-02T22:06:59.680Z,9.07
2023-05-02T22:09:27.106Z,9.52
2023-05-02T22:11:54.545Z,8.71
2023-05-02T22:14:25.422Z,8.56
2023-05-02T22:16:58.441Z,8.97
2023-05-02T22:19:27.379Z,9.23
2023-05-02T22:21:57.327Z,9.20
2023-05-02T22:24:24.868Z,9.54
2023-05-02T22:26:52.324Z,9.19
2023-05-02T22:29:19.784Z,8.93
2023-05-02T22:31:47.340Z,8.60
2023-05-02T22:34:14.827Z,9.07
2023-05-02T22:36:43.659Z,8.74
2023-05-02T22:39:14.433Z,8.90
2023-05-02T22:41:42.228Z,9.04
2023-05-02T22:44:10.319Z,9.40
2023-05-02T22:46:38.880Z,9.18
2023-05-02T22:49:09.442Z,9.13
2023-05-02T22:51:37.759Z,9.18
2023-05-02T22:54:07.912Z,8.51
2023-05-02T22:56:35.785Z,9.00
2023-05-02T22:59:03.310Z,8.73
2023-05-02T23:01:30.830Z,8.91
2023-05-02T23:03:58.370Z,8.14
2023-05-02T23:06:28.368Z,8.58
2023-05-02T23:08:55.826Z,8.24
2023-05-02T23:11:25.845Z,8.73
2023-05-02T23:13:53.283Z,7.97
2023-05-02T23:16:20.812Z,7.80
2023-05-02T23:18:48.480Z,8.24
2023-05-02T23:21:16.368Z,8.21
2023-05-02T23:23:44.447Z,8.00
2023-05-02T23:26:11.926Z,8.61
2023-05-02T23:28:40.879Z,8.58
2023-05-02T23:31:08.844Z,7.96
2023-05-02T23:33:37.162Z,7.91
2023-05-02T23:36:06.752Z,8.03
2023-05-02T23:38:36.974Z,7.52
2023-05-02T23:41:04.794Z,7.93
2023-05-02T23:43:32.409Z,8.15
2023-05-02T23:46:02.023Z,8.67
2023-05-02T23:48:29.456Z,8.08
2023-05-02T23:50:56.922Z,8.09
2023-05-02T23:53:24.377Z,8.56
2023-05-02T23:55:54.587Z,8.59
2023-05-02T23:58:22.028Z,9.28
